Time;durP1;ratioP1;P1;durP2;ratioP2;P2;SDS_P1;SDS_P2;PMS_P1;PMS_P2;Temp;Humidity;BMP_temperature;BMP_pressure;BME280_temperature;BME280_humidity;BME280_pressure;Samples;Min_cycle;Max_cycle;Signal;HPM_P1;HPM_P2
2023/09/14 00:02:04;;;;;;;4.85;1.50;;;13.60;70.60;;;;;;4940657;28;20044;-78
2023/09/14 00:04:32;;;;;;;4.65;1.38;;;13.50;70.50;;;;;;4945754;28;20903;-78
2023/09/14 00:07:00;;;;;;;3.63;1.00;;;13.50;70.40;;;;;;4930826;28;20131;-78
2023/09/14 00:09:28;;;;;;;3.67;1.27;;;13.50;70.40;;;;;;4947141;28;20112;-78
2023/09/14 00:11:57;;;;;;;3.28;0.98;;;13.50;70.50;;;;;;4938350;28;20356;-78
2023/09/14 00:14:24;;;;;;;4.78;1.13;;;13.50;70.40;;;;;;4957422;28;21266;-78
2023/09/14 00:16:51;;;;;;;3.28;1.00;;;13.50;70.50;;;;;;4923761;29;20139;-79
2023/09/14 00:19:18;;;;;;;3.13;0.90;;;13.50;70.50;;;;;;4946949;28;20068;-79
2023/09/14 00:21:45;;;;;;;2.93;0.90;;;13.50;70.50;;;;;;4957462;28;20159;-78
2023/09/14 00:24:12;;;;;;;3.50;0.98;;;13.40;70.60;;;;;;4935974;28;21245;-78
2023/09/14 00:26:39;;;;;;;2.80;0.80;;;13.30;70.70;;;;;;4944079;28;20074;-78
2023/09/14 00:29:08;;;;;;;2.38;0.77;;;13.30;70.70;;;;;;4927922;28;20056;-78
2023/09/14 00:31:38;;;;;;;7.90;1.17;;;13.30;70.80;;;;;;4929445;29;20088;-79
2023/09/14 00:34:05;;;;;;;2.67;0.70;;;13.30;70.90;;;;;;4950577;28;20066;-79
2023/09/14 00:36:32;;;;;;;4.82;1.15;;;13.30;70.80;;;;;;4946696;28;20300;-79
2023/09/14 00:38:59;;;;;;;2.58;0.75;;;13.30;70.80;;;;;;4949427;28;20044;-78
2023/09/14 00:41:26;;;;;;;11.25;1.30;;;13.30;70.80;;;;;;4946094;28;20151;-78
2023/09/14 00:43:53;;;;;;;5.53;1.20;;;13.30;70.70;;;;;;4946285;28;20139;-79
2023/09/14 00:46:22;;;;;;;2.77;0.80;;;13.30;70.60;;;;;;4949667;28;20056;-78
2023/09/14 00:48:49;;;;;;;3.67;0.88;;;13.20;70.70;;;;;;4934471;28;20404;-78
2023/09/14 00:51:16;;;;;;;3.63;0.82;;;13.10;70.70;;;;;;4954763;28;20052;-79
2023/09/14 00:53:44;;;;;;;2.92;0.80;;;13.10;70.70;;;;;;4959847;28;20058;-78
2023/09/14 00:56:12;;;;;;;3.60;0.60;;;13.10;70.90;;;;;;4961508;28;20606;-78
2023/09/14 00:58:39;;;;;;;3.20;0.63;;;13.10;71.00;;;;;;4937157;28;20056;-78
2023/09/14 01:01:07;;;;;;;2.38;0.65;;;13.10;71.00;;;;;;4934727;28;20293;-78
2023/09/14 01:03:35;;;;;;;2.67;0.80;;;13.10;70.90;;;;;;4928023;29;20052;-78
2023/09/14 01:06:03;;;;;;;2.92;0.90;;;13.10;70.90;;;;;;4959607;28;20120;-78
2023/09/14 01:08:30;;;;;;;4.95;1.15;;;13.00;71.00;;;;;;4940476;28;20566;-78
2023/09/14 01:10:58;;;;;;;4.20;0.90;;;13.00;71.20;;;;;;4933769;28;20965;-78
2023/09/14 01:13:44;;;;;;;3.53;0.80;;;13.00;71.20;;;;;;4940552;28;20322;-78
2023/09/14 01:16:16;;;;;;;2.75;0.80;;;12.90;71.30;;;;;;4942913;28;20048;-78
2023/09/14 01:18:54;;;;;;;3.22;0.98;;;12.90;71.30;;;;;;4928697;28;20135;-78
2023/09/14 01:22:01;;;;;;;3.80;1.02;;;12.90;71.50;;;;;;4959928;28;20060;-78
2023/09/14 01:24:40;;;;;;;4.70;0.90;;;12.90;71.40;;;;;;4924214;28;20048;-78
2023/09/14 01:27:10;;;;;;;3.88;1.08;;;12.80;71.60;;;;;;4943478;28;20308;-78
2023/09/14 01:29:38;;;;;;;3.15;1.10;;;12.80;71.60;;;;;;4930891;28;20079;-78
2023/09/14 01:32:06;;;;;;;5.00;0.93;;;12.80;71.70;;;;;;4959448;28;20422;-78
2023/09/14 01:34:34;;;;;;;3.95;1.02;;;12.80;71.80;;;;;;4965004;28;20261;-78
2023/09/14 01:37:05;;;;;;;4.10;0.93;;;12.70;72.10;;;;;;4961693;28;20139;-78
2023/09/14 01:39:34;;;;;;;2.47;0.65;;;12.70;72.30;;;;;;4946702;28;20285;-78
2023/09/14 01:42:03;;;;;;;3.63;0.85;;;12.60;72.40;;;;;;4945629;28;20056;-78
2023/09/14 01:44:32;;;;;;;3.00;0.70;;;12.60;72.40;;;;;;4945237;28;20529;-78
2023/09/14 01:46:59;;;;;;;2.80;0.50;;;12.60;72.40;;;;;;4933009;28;20051;-78
2023/09/14 01:49:28;;;;;;;3.37;0.70;;;12.60;72.40;;;;;;4964906;28;20055;-78
2023/09/14 01:51:55;;;;;;;3.17;0.60;;;12.50;72.50;;;;;;4949208;28;20782;-78
2023/09/14 01:54:25;;;;;;;4.03;0.70;;;12.50;72.50;;;;;;4942796;28;20060;-78
2023/09/14 01:56:52;;;;;;;3.67;0.70;;;12.50;72.40;;;;;;4961619;28;20061;-78
2023/09/14 01:59:19;;;;;;;2.50;0.60;;;12.50;72.40;;;;;;4961884;28;20048;-78
2023/09/14 02:01:49;;;;;;;3.40;0.60;;;12.50;72.50;;;;;;4958525;28;20060;-78
2023/09/14 02:04:17;;;;;;;2.33;0.50;;;12.50;72.50;;;;;;4947411;28;20264;-78
2023/09/14 02:06:44;;;;;;;2.97;0.68;;;12.50;72.60;;;;;;4934363;28;20445;-78
2023/09/14 02:09:40;;;;;;;3.17;0.60;;;12.30;72.80;;;;;;4949148;28;20068;-78
2023/09/14 02:12:07;;;;;;;3.88;1.00;;;12.20;72.90;;;;;;4949926;28;20060;-78
2023/09/14 02:14:34;;;;;;;3.40;0.90;;;12.20;72.90;;;;;;4954560;28;20522;-78
2023/09/14 02:17:03;;;;;;;4.45;0.90;;;12.20;72.90;;;;;;4951058;28;20321;-78
2023/09/14 02:19:31;;;;;;;3.10;0.65;;;12.20;72.80;;;;;;4963432;28;20566;-77
2023/09/14 02:21:58;;;;;;;2.80;0.50;;;12.20;72.80;;;;;;4959736;28;20079;-77
2023/09/14 02:24:24;;;;;;;3.33;0.60;;;12.20;72.70;;;;;;4967761;28;20177;-78
2023/09/14 02:26:54;;;;;;;2.73;0.50;;;12.20;72.60;;;;;;4924772;28;20598;-78
2023/09/14 02:29:21;;;;;;;3.45;0.70;;;12.20;72.60;;;;;;4948556;28;20261;-77
2023/09/14 02:31:47;;;;;;;2.55;0.60;;;12.20;72.70;;;;;;4954391;28;20143;-78
2023/09/14 02:34:16;;;;;;;2.45;0.60;;;12.20;72.80;;;;;;4947159;28;20524;-78
2023/09/14 02:36:43;;;;;;;2.08;0.50;;;12.20;72.80;;;;;;4967501;28;20083;-78
2023/09/14 02:39:10;;;;;;;2.50;0.70;;;12.20;72.60;;;;;;4930385;28;20051;-78
2023/09/14 02:41:38;;;;;;;4.25;0.70;;;12.20;72.50;;;;;;4950969;28;20762;-78
2023/09/14 02:44:06;;;;;;;3.05;0.80;;;12.20;72.50;;;;;;4947859;28;20080;-79
2023/09/14 02:46:32;;;;;;;3.15;0.60;;;12.20;72.40;;;;;;4931801;29;20112;-79
2023/09/14 02:49:00;;;;;;;2.88;0.60;;;12.20;72.50;;;;;;4956577;28;20408;-78
2023/09/14 02:51:28;;;;;;;2.40;0.80;;;12.20;72.40;;;;;;4943758;28;20557;-77
2023/09/14 02:53:55;;;;;;;2.72;0.70;;;12.20;72.40;;;;;;4944302;28;20260;-78
2023/09/14 02:56:22;;;;;;;3.88;0.77;;;12.20;72.40;;;;;;4950369;28;20463;-78
2023/09/14 02:58:51;;;;;;;6.38;1.02;;;12.20;72.30;;;;;;4944795;28;20055;-78
2023/09/14 03:01:20;;;;;;;2.60;0.70;;;12.20;72.20;;;;;;4947887;28;20050;-78
2023/09/14 03:03:48;;;;;;;3.10;0.70;;;12.20;72.10;;;;;;4956891;28;20591;-77
2023/09/14 03:06:15;;;;;;;3.50;1.02;;;12.20;71.90;;;;;;4957571;28;20272;-78
2023/09/14 03:08:44;;;;;;;5.53;1.10;;;12.10;71.90;;;;;;4951280;28;20061;-78
2023/09/14 03:11:12;;;;;;;3.58;1.00;;;12.10;72.00;;;;;;4962920;28;20139;-78
2023/09/14 03:13:41;;;;;;;3.95;0.90;;;12.00;72.10;;;;;;4924369;28;20512;-78
2023/09/14 03:16:08;;;;;;;3.37;0.70;;;12.00;72.20;;;;;;4937271;28;20068;-78
2023/09/14 03:18:35;;;;;;;4.05;0.60;;;12.00;72.30;;;;;;4926510;28;20280;-77
2023/09/14 03:21:02;;;;;;;2.33;0.40;;;12.00;72.40;;;;;;4948679;28;20176;-78
2023/09/14 03:23:31;;;;;;;3.55;0.68;;;12.00;72.40;;;;;;4940286;28;20064;-77
2023/09/14 03:25:59;;;;;;;2.83;0.60;;;12.00;72.40;;;;;;4960819;28;20056;-78
2023/09/14 03:28:27;;;;;;;4.33;0.60;;;12.00;72.30;;;;;;4921665;29;20052;-77
2023/09/14 03:30:54;;;;;;;2.22;0.50;;;12.00;72.30;;;;;;4934988;28;20794;-78
2023/09/14 03:33:21;;;;;;;2.78;0.52;;;11.90;72.40;;;;;;4932897;28;20052;-78
2023/09/14 03:35:49;;;;;;;3.53;0.52;;;11.90;72.40;;;;;;4955337;28;20051;-77
2023/09/14 03:38:18;;;;;;;2.78;0.60;;;11.90;72.30;;;;;;4952868;28;20135;-78
2023/09/14 03:40:45;;;;;;;3.20;0.67;;;11.90;72.20;;;;;;4958780;28;20067;-78
2023/09/14 03:43:13;;;;;;;2.33;0.50;;;11.90;72.00;;;;;;4940767;28;20401;-78
2023/09/14 03:45:40;;;;;;;3.25;0.57;;;11.90;72.00;;;;;;4933529;28;20168;-78
2023/09/14 03:48:07;;;;;;;2.60;0.60;;;11.90;72.00;;;;;;4955428;28;20052;-77
2023/09/14 03:50:34;;;;;;;3.30;0.50;;;11.90;72.00;;;;;;4943934;28;20555;-78
2023/09/14 03:53:02;;;;;;;3.10;0.43;;;11.80;72.00;;;;;;4937571;28;20558;-77
2023/09/14 03:55:29;;;;;;;1.88;0.40;;;11.80;72.00;;;;;;4955640;28;20717;-78
2023/09/14 03:57:56;;;;;;;2.40;0.40;;;11.80;72.10;;;;;;4898587;29;20319;-78
2023/09/14 04:00:25;;;;;;;2.60;0.50;;;11.80;72.10;;;;;;4949906;28;20475;-78
2023/09/14 04:02:52;;;;;;;2.03;0.50;;;11.70;72.20;;;;;;4925792;28;20542;-78
2023/09/14 04:05:19;;;;;;;3.33;0.60;;;11.70;72.30;;;;;;4909413;29;20048;-77
2023/09/14 04:07:47;;;;;;;3.30;0.55;;;11.70;72.40;;;;;;4936666;28;20841;-78
2023/09/14 04:10:15;;;;;;;2.75;0.40;;;11.70;72.50;;;;;;4915231;29;20582;-78
2023/09/14 04:12:44;;;;;;;2.67;0.60;;;11.70;72.50;;;;;;4925054;29;20048;-78
2023/09/14 04:15:11;;;;;;;2.67;0.50;;;11.70;72.40;;;;;;4915689;29;20048;-78
2023/09/14 04:17:39;;;;;;;3.37;0.60;;;11.70;72.50;;;;;;4929831;29;20056;-78
2023/09/14 04:20:10;;;;;;;3.92;0.70;;;11.70;72.50;;;;;;4942307;28;21054;-77
2023/09/14 04:22:38;;;;;;;2.15;0.60;;;11.70;72.50;;;;;;4908449;28;20530;-78
2023/09/14 04:25:06;;;;;;;2.65;0.47;;;11.70;72.50;;;;;;4932036;28;20063;-78
2023/09/14 04:27:34;;;;;;;3.05;0.60;;;11.70;72.60;;;;;;4924940;29;20056;-78
2023/09/14 04:30:02;;;;;;;2.77;0.60;;;11.70;72.60;;;;;;4928294;28;20068;-77
2023/09/14 04:32:29;;;;;;;3.50;0.60;;;11.70;72.60;;;;;;4948601;28;20318;-78
2023/09/14 04:34:58;;;;;;;3.20;0.60;;;11.70;72.70;;;;;;4950331;28;20128;-78
2023/09/14 04:37:25;;;;;;;2.30;0.50;;;11.60;72.80;;;;;;4947807;28;20083;-78
2023/09/14 04:39:52;;;;;;;2.08;0.43;;;11.60;72.90;;;;;;4913522;28;20075;-77
2023/09/14 04:42:18;;;;;;;3.37;0.60;;;11.60;72.90;;;;;;4926340;29;20056;-78
2023/09/14 04:44:49;;;;;;;3.95;0.50;;;11.60;72.90;;;;;;4945902;28;20280;-78
2023/09/14 04:47:17;;;;;;;2.33;0.40;;;11.60;73.00;;;;;;4927726;29;20076;-77
2023/09/14 04:49:44;;;;;;;2.08;0.40;;;11.60;73.00;;;;;;4936601;28;20059;-78
2023/09/14 04:52:12;;;;;;;3.50;0.40;;;11.60;72.90;;;;;;4936317;28;20052;-77
2023/09/14 04:54:39;;;;;;;2.50;0.50;;;11.60;73.00;;;;;;4963306;28;20163;-77
2023/09/14 04:57:06;;;;;;;2.08;0.30;;;11.50;72.90;;;;;;4946666;28;20430;-78
2023/09/14 04:59:32;;;;;;;2.05;0.30;;;11.50;72.90;;;;;;4945572;28;20048;-78
2023/09/14 05:02:00;;;;;;;2.45;0.30;;;11.50;72.70;;;;;;4940445;28;20052;-78
2023/09/14 05:04:27;;;;;;;1.38;0.20;;;11.50;73.00;;;;;;4946887;28;20174;-78
2023/09/14 05:06:54;;;;;;;2.20;0.40;;;11.40;72.90;;;;;;4950303;28;20040;-78
2023/09/14 05:09:22;;;;;;;2.47;0.40;;;11.30;73.00;;;;;;4933236;28;20252;-78
2023/09/14 05:11:50;;;;;;;2.40;0.50;;;11.20;73.20;;;;;;4942687;28;20515;-78
2023/09/14 05:14:17;;;;;;;2.85;0.50;;;11.10;73.50;;;;;;4929687;29;20052;-78
2023/09/14 05:16:44;;;;;;;2.78;0.50;;;11.10;73.60;;;;;;4936689;28;20427;-78
2023/09/14 05:19:11;;;;;;;2.67;0.50;;;11.10;73.90;;;;;;4961529;28;20143;-78
2023/09/14 05:21:39;;;;;;;2.45;0.40;;;11.10;74.00;;;;;;4940770;28;20394;-77
2023/09/14 05:24:06;;;;;;;1.92;0.30;;;11.10;74.20;;;;;;4939538;28;20078;-78
2023/09/14 05:26:35;;;;;;;1.58;0.20;;;11.00;74.40;;;;;;4921678;29;20120;-77
2023/09/14 05:29:02;;;;;;;1.33;0.20;;;11.00;74.40;;;;;;4944028;28;20503;-77
2023/09/14 05:31:29;;;;;;;1.60;0.20;;;10.90;74.30;;;;;;4922811;29;20151;-77
2023/09/14 05:33:56;;;;;;;1.70;0.20;;;10.80;74.10;;;;;;4960366;28;20335;-78
2023/09/14 05:36:24;;;;;;;4.38;0.50;;;10.80;74.00;;;;;;4945727;28;20056;-78
2023/09/14 05:38:51;;;;;;;3.47;0.70;;;10.80;74.00;;;;;;4947629;28;20048;-77
2023/09/14 05:41:19;;;;;;;3.17;0.50;;;10.70;74.10;;;;;;4956448;28;20052;-77
2023/09/14 05:43:47;;;;;;;3.77;0.80;;;10.70;74.30;;;;;;4955445;28;20052;-77
2023/09/14 05:46:14;;;;;;;3.08;0.85;;;10.70;74.40;;;;;;4949531;28;20256;-78
2023/09/14 05:48:42;;;;;;;3.03;0.80;;;10.80;74.40;;;;;;4958196;28;20130;-77
2023/09/14 05:51:09;;;;;;;3.95;0.90;;;10.80;74.60;;;;;;4929112;28;20060;-77
2023/09/14 05:53:36;;;;;;;3.65;0.80;;;10.80;74.60;;;;;;4959251;28;20075;-77
2023/09/14 05:56:05;;;;;;;3.47;0.73;;;10.80;74.80;;;;;;4934969;28;20052;-83
2023/09/14 05:58:35;;;;;;;3.20;0.82;;;10.80;74.80;;;;;;4959707;28;20336;-86
2023/09/14 06:01:04;;;;;;;3.65;0.70;;;10.80;75.00;;;;;;4953364;28;20143;-86
2023/09/14 06:03:32;;;;;;;3.13;0.70;;;10.90;75.50;;;;;;4931415;29;20519;-86
2023/09/14 06:05:59;;;;;;;2.85;0.60;;;10.90;76.10;;;;;;4938196;28;20056;-87
2023/09/14 06:08:31;;;;;;;4.93;0.93;;;10.90;76.40;;;;;;4963183;28;20059;-86
2023/09/14 06:10:59;;;;;;;4.28;0.88;;;10.90;76.50;;;;;;4948126;28;20257;-86
2023/09/14 06:13:28;;;;;;;3.20;0.80;;;10.90;76.60;;;;;;4941948;28;20064;-84
2023/09/14 06:15:56;;;;;;;7.43;0.90;;;10.90;76.70;;;;;;4930859;29;20052;-85
2023/09/14 06:18:24;;;;;;;4.45;0.90;;;10.90;76.90;;;;;;4942570;28;20064;-77
2023/09/14 06:20:51;;;;;;;4.77;1.10;;;10.90;77.00;;;;;;4966397;28;20151;-78
2023/09/14 06:23:19;;;;;;;3.72;1.00;;;11.00;76.90;;;;;;4964967;28;20291;-77
2023/09/14 06:25:47;;;;;;;4.47;1.23;;;11.00;77.00;;;;;;4947353;28;20699;-77
2023/09/14 06:28:14;;;;;;;4.72;1.20;;;11.00;77.10;;;;;;4931937;28;20052;-77
2023/09/14 06:30:41;;;;;;;4.40;1.08;;;11.00;77.20;;;;;;4949435;28;20060;-78
2023/09/14 06:33:08;;;;;;;5.67;1.10;;;11.10;77.10;;;;;;4930693;28;20052;-78
2023/09/14 06:35:37;;;;;;;4.25;1.25;;;11.10;77.20;;;;;;4934973;29;20429;-77
2023/09/14 06:38:05;;;;;;;4.68;1.30;;;11.10;77.50;;;;;;4934196;28;20585;-78
2023/09/14 06:40:32;;;;;;;3.88;1.00;;;11.10;77.50;;;;;;4934573;29;20048;-77
2023/09/14 06:42:59;;;;;;;4.72;1.20;;;11.10;77.50;;;;;;4933102;29;20059;-77
2023/09/14 06:45:26;;;;;;;3.50;1.07;;;11.20;77.60;;;;;;4993768;23;20082;-78
2023/09/14 06:47:53;;;;;;;4.32;1.20;;;11.30;77.60;;;;;;4964864;28;20279;-78
2023/09/14 06:50:20;;;;;;;3.40;0.90;;;11.30;77.60;;;;;;4991094;28;20050;-78
2023/09/14 06:52:50;;;;;;;4.65;1.58;;;11.30;77.50;;;;;;4975286;28;20082;-77
2023/09/14 06:55:17;;;;;;;4.00;1.02;;;11.30;77.50;;;;;;4989956;28;20054;-78
2023/09/14 06:57:44;;;;;;;4.77;1.33;;;11.40;77.50;;;;;;4992458;28;20067;-76
2023/09/14 07:00:14;;;;;;;4.57;1.30;;;11.40;77.50;;;;;;4991038;28;20777;-76
2023/09/14 07:02:44;;;;;;;6.80;1.02;;;11.40;77.60;;;;;;4997882;28;20058;-76
2023/09/14 07:05:11;;;;;;;7.72;1.70;;;11.40;77.70;;;;;;4991890;28;20051;-76
2023/09/14 07:07:38;;;;;;;6.93;1.73;;;11.50;78.00;;;;;;4973168;28;20528;-75
2023/09/14 07:10:08;;;;;;;6.93;1.93;;;11.50;78.10;;;;;;4964845;28;20055;-77
2023/09/14 07:12:36;;;;;;;5.57;1.90;;;11.50;78.20;;;;;;4999161;28;20755;-77
2023/09/14 07:15:03;;;;;;;6.18;2.10;;;11.50;78.30;;;;;;4990366;28;20134;-75
2023/09/14 07:17:30;;;;;;;5.55;1.90;;;11.50;78.90;;;;;;4993313;28;20057;-77
2023/09/14 07:19:57;;;;;;;5.22;1.80;;;11.70;79.10;;;;;;4995216;28;20568;-77
2023/09/14 07:22:24;;;;;;;5.43;1.87;;;11.70;79.40;;;;;;4972993;28;20072;-76
2023/09/14 07:24:51;;;;;;;6.80;1.95;;;11.70;79.70;;;;;;5005847;28;20267;-77
2023/09/14 07:27:21;;;;;;;4.50;1.70;;;11.70;79.80;;;;;;4976701;28;20121;-76
2023/09/14 07:29:48;;;;;;;6.05;1.80;;;11.90;80.00;;;;;;5004009;28;20110;-77
2023/09/14 07:32:15;;;;;;;6.30;1.75;;;11.90;80.00;;;;;;4972813;28;20051;-76
2023/09/14 07:34:42;;;;;;;5.87;2.27;;;11.90;80.00;;;;;;4977473;28;20792;-77
2023/09/14 07:37:09;;;;;;;5.25;1.90;;;12.00;80.10;;;;;;4980046;28;20658;-76
2023/09/14 07:39:36;;;;;;;4.93;1.95;;;12.10;80.10;;;;;;4999638;28;20062;-77
2023/09/14 07:42:03;;;;;;;4.93;1.70;;;12.20;80.20;;;;;;4995102;28;20137;-77
2023/09/14 07:44:31;;;;;;;7.72;2.05;;;12.20;80.40;;;;;;4989088;28;20080;-78
2023/09/14 07:46:58;;;;;;;5.13;2.10;;;12.30;80.50;;;;;;5008097;28;20057;-77
2023/09/14 07:49:25;;;;;;;5.50;1.83;;;12.50;80.50;;;;;;4976915;28;20269;-77
2023/09/14 07:51:52;;;;;;;5.00;1.83;;;12.50;80.50;;;;;;5008777;28;20149;-78
2023/09/14 07:54:21;;;;;;;5.95;1.92;;;12.50;80.50;;;;;;4993132;28;20159;-80
2023/09/14 07:56:48;;;;;;;7.20;2.00;;;12.70;80.70;;;;;;4992711;28;20077;-78
2023/09/14 07:59:15;;;;;;;10.17;2.00;;;12.70;80.70;;;;;;4985404;28;20059;-78
2023/09/14 08:01:44;;;;;;;7.95;2.10;;;12.80;80.70;;;;;;4968865;28;20397;-79
2023/09/14 08:04:11;;;;;;;7.88;2.25;;;12.90;80.60;;;;;;4987459;28;20043;-79
2023/09/14 08:06:38;;;;;;;8.90;2.63;;;13.00;80.50;;;;;;4998853;28;20502;-76
2023/09/14 08:09:05;;;;;;;6.72;2.10;;;13.10;80.60;;;;;;4961227;28;20052;-77
2023/09/14 08:11:34;;;;;;;8.77;2.20;;;13.10;80.60;;;;;;4969410;28;20150;-78
2023/09/14 08:14:01;;;;;;;7.72;2.10;;;13.30;80.50;;;;;;4999904;28;20333;-78
2023/09/14 08:16:30;;;;;;;8.63;2.78;;;13.30;80.00;;;;;;4996253;28;20566;-77
2023/09/14 08:18:59;;;;;;;7.28;2.00;;;13.50;79.80;;;;;;4993295;28;20059;-77
2023/09/14 08:21:26;;;;;;;4.85;1.73;;;13.50;79.80;;;;;;5005532;28;20055;-78
2023/09/14 08:23:53;;;;;;;8.37;2.00;;;13.60;79.80;;;;;;4980981;28;20058;-78
2023/09/14 08:26:20;;;;;;;5.35;1.73;;;13.70;79.50;;;;;;5011586;28;20463;-79
2023/09/14 08:28:47;;;;;;;5.45;2.03;;;13.70;79.40;;;;;;4991156;28;20051;-78
2023/09/14 08:31:14;;;;;;;6.93;1.90;;;13.90;79.30;;;;;;4993260;28;20082;-77
2023/09/14 08:33:41;;;;;;;6.60;1.50;;;13.90;79.20;;;;;;4989700;28;20046;-80
2023/09/14 08:36:09;;;;;;;4.93;1.47;;;14.00;79.20;;;;;;4974064;28;20059;-78
2023/09/14 08:38:36;;;;;;;7.35;1.30;;;14.10;78.80;;;;;;4963726;28;20254;-80
2023/09/14 08:41:12;;;;;;;5.97;1.40;;;14.20;78.30;;;;;;5008434;28;20551;-79
2023/09/14 08:43:40;;;;;;;5.50;1.40;;;14.20;78.10;;;;;;4994287;28;20585;-78
2023/09/14 08:46:11;;;;;;;5.43;1.20;;;14.30;77.70;;;;;;5000612;28;20559;-77
2023/09/14 08:48:42;;;;;;;7.03;1.27;;;14.40;77.80;;;;;;4990183;28;20045;-78
2023/09/14 08:51:12;;;;;;;4.80;1.00;;;14.40;77.50;;;;;;5002535;28;20275;-78
2023/09/14 08:53:40;;;;;;;5.47;1.13;;;14.50;76.80;;;;;;5012563;28;20082;-79
2023/09/14 08:56:09;;;;;;;5.88;0.90;;;14.60;75.60;;;;;;4972357;28;20118;-79
2023/09/14 08:58:37;;;;;;;7.97;1.40;;;14.70;75.20;;;;;;4971940;28;20808;-78
2023/09/14 09:01:06;;;;;;;6.63;1.40;;;14.70;74.70;;;;;;4979678;28;20149;-78
2023/09/14 09:03:34;;;;;;;5.45;1.00;;;14.80;74.40;;;;;;4971671;28;20263;-80
2023/09/14 09:06:01;;;;;;;7.10;1.20;;;14.90;74.20;;;;;;4955563;28;20883;-79
2023/09/14 09:08:29;;;;;;;5.47;1.08;;;15.00;74.30;;;;;;4979188;28;20047;-79
2023/09/14 09:10:56;;;;;;;7.95;1.33;;;15.00;74.20;;;;;;4980439;28;20081;-79
2023/09/14 09:13:33;;;;;;;6.23;1.80;;;15.00;74.10;;;;;;4963095;28;20133;-79
2023/09/14 09:16:00;;;;;;;5.80;1.30;;;15.10;73.60;;;;;;4986723;28;20596;-79
2023/09/14 09:18:27;;;;;;;8.02;1.55;;;15.20;73.00;;;;;;4962660;28;20117;-80
2023/09/14 09:20:54;;;;;;;8.27;1.70;;;15.30;72.90;;;;;;4965245;28;20047;-79
2023/09/14 09:23:22;;;;;;;5.90;1.58;;;15.30;72.60;;;;;;5011783;28;20543;-79
2023/09/14 09:25:53;;;;;;;7.03;1.67;;;15.40;72.30;;;;;;4971497;28;20141;-79
2023/09/14 09:28:20;;;;;;;8.25;1.65;;;15.50;72.00;;;;;;4973142;28;20856;-79
2023/09/14 09:30:54;;;;;;;6.47;1.67;;;15.50;72.20;;;;;;4995668;28;20149;-79
2023/09/14 09:33:33;;;;;;;7.72;1.55;;;15.60;72.20;;;;;;4994731;28;20057;-78
2023/09/14 09:36:02;;;;;;;7.45;1.10;;;15.70;72.10;;;;;;4976776;28;20082;-78
2023/09/14 09:38:37;;;;;;;7.40;1.33;;;15.80;70.10;;;;;;4967422;28;20050;-79
2023/09/14 09:41:11;;;;;;;10.70;1.25;;;15.80;69.60;;;;;;5001767;28;20274;-78
2023/09/14 09:43:38;;;;;;;6.35;1.40;;;15.90;69.60;;;;;;4983263;28;20405;-78
2023/09/14 09:46:13;;;;;;;7.68;1.40;;;16.00;69.50;;;;;;4997008;28;20109;-78
2023/09/14 09:48:41;;;;;;;6.40;1.48;;;16.00;68.70;;;;;;4976416;28;20055;-79
2023/09/14 09:51:08;;;;;;;5.33;1.20;;;16.10;68.50;;;;;;4960835;28;20050;-79
2023/09/14 09:53:37;;;;;;;7.28;1.25;;;16.10;67.80;;;;;;4980249;28;20266;-79
2023/09/14 09:56:04;;;;;;;7.72;1.30;;;16.20;66.40;;;;;;4978555;28;20149;-79
2023/09/14 09:58:36;;;;;;;5.78;1.20;;;16.20;66.50;;;;;;5008885;28;20137;-79
2023/09/14 10:01:03;;;;;;;5.88;1.15;;;16.20;66.50;;;;;;5012348;28;20513;-78
2023/09/14 10:03:31;;;;;;;8.17;1.20;;;16.30;67.00;;;;;;4980857;28;20050;-78
2023/09/14 10:05:58;;;;;;;5.22;1.35;;;16.40;67.00;;;;;;4993429;28;20897;-80
2023/09/14 10:08:25;;;;;;;7.13;1.30;;;16.40;67.20;;;;;;4972361;28;20544;-80
2023/09/14 10:10:53;;;;;;;5.70;1.25;;;16.40;65.90;;;;;;4981038;28;20137;-78
2023/09/14 10:13:22;;;;;;;7.65;1.20;;;16.50;65.90;;;;;;4981367;28;20054;-78
2023/09/14 10:15:51;;;;;;;6.03;1.37;;;16.50;65.40;;;;;;4961633;28;20421;-78
2023/09/14 10:18:21;;;;;;;5.60;1.30;;;16.50;65.40;;;;;;4981078;28;20262;-78
2023/09/14 10:20:50;;;;;;;6.18;1.20;;;16.60;65.40;;;;;;4986937;28;20060;-78
2023/09/14 10:23:19;;;;;;;6.15;1.60;;;16.70;65.50;;;;;;4997400;28;20057;-78
2023/09/14 10:25:49;;;;;;;6.53;1.50;;;16.70;65.60;;;;;;5003782;28;20063;-78
2023/09/14 10:28:17;;;;;;;6.20;1.20;;;16.80;66.00;;;;;;4967758;28;20061;-77
2023/09/14 10:30:45;;;;;;;9.70;2.10;;;16.80;65.90;;;;;;4999663;28;20376;-78
2023/09/14 10:33:15;;;;;;;5.88;1.60;;;16.90;66.10;;;;;;4983466;28;20091;-76
2023/09/14 10:35:42;;;;;;;6.18;1.70;;;17.00;64.90;;;;;;4987287;28;20130;-77
2023/09/14 10:38:10;;;;;;;4.78;1.25;;;17.00;65.10;;;;;;5004484;28;20109;-77
2023/09/14 10:40:38;;;;;;;6.83;1.53;;;17.10;65.00;;;;;;4954780;28;20047;-78
2023/09/14 10:43:06;;;;;;;7.82;1.60;;;17.20;65.00;;;;;;4968496;28;20936;-78
2023/09/14 10:45:36;;;;;;;7.15;1.25;;;17.20;64.70;;;;;;4989371;28;20149;-78
2023/09/14 10:48:06;;;;;;;7.03;1.50;;;17.30;64.70;;;;;;5001289;28;20456;-79
2023/09/14 10:50:35;;;;;;;6.13;1.25;;;17.40;64.90;;;;;;5001398;28;20699;-78
2023/09/14 10:53:02;;;;;;;5.93;1.40;;;17.40;64.50;;;;;;4980051;28;20623;-77
2023/09/14 10:55:31;;;;;;;7.18;1.70;;;17.50;64.20;;;;;;4984297;28;20355;-76
2023/09/14 10:57:58;;;;;;;6.68;1.85;;;17.50;63.40;;;;;;4978239;28;20130;-76
2023/09/14 11:00:34;;;;;;;5.30;1.45;;;17.60;63.30;;;;;;4987780;28;20449;-75
2023/09/14 11:03:01;;;;;;;6.72;1.75;;;17.60;63.80;;;;;;4998970;28;20054;-75
2023/09/14 11:05:41;;;;;;;5.57;1.63;;;17.70;63.00;;;;;;5006153;28;20149;-75
2023/09/14 11:08:09;;;;;;;7.45;1.30;;;17.70;63.00;;;;;;4982252;28;20261;-75
2023/09/14 11:10:37;;;;;;;7.00;1.48;;;17.70;63.30;;;;;;4974410;28;20074;-75
2023/09/14 11:13:28;;;;;;;6.07;1.80;;;17.70;63.20;;;;;;4989130;28;20047;-75
2023/09/14 11:15:57;;;;;;;6.22;1.50;;;17.80;63.10;;;;;;4980890;28;20046;-75
2023/09/14 11:18:35;;;;;;;6.13;1.60;;;17.80;62.70;;;;;;4991805;28;20051;-75
2023/09/14 11:21:05;;;;;;;5.90;1.33;;;17.90;62.50;;;;;;4971407;28;20279;-74
2023/09/14 11:23:36;;;;;;;6.35;1.10;;;18.00;61.80;;;;;;4991790;28;20047;-76
2023/09/14 11:26:04;;;;;;;6.88;1.40;;;18.00;61.80;;;;;;5003145;28;20073;-78
2023/09/14 11:28:32;;;;;;;5.22;1.67;;;18.10;62.00;;;;;;4998298;28;20055;-79
2023/09/14 11:31:02;;;;;;;5.80;1.60;;;18.10;61.90;;;;;;4996500;28;20161;-78
2023/09/14 11:33:32;;;;;;;5.72;1.55;;;18.20;62.30;;;;;;5012181;28;20259;-78
2023/09/14 11:36:01;;;;;;;8.05;1.85;;;18.30;62.30;;;;;;4989288;28;20051;-78
2023/09/14 11:38:30;;;;;;;5.57;1.35;;;18.40;62.20;;;;;;5017549;28;20601;-78
2023/09/14 11:40:57;;;;;;;8.68;1.67;;;18.50;62.30;;;;;;4997628;28;20578;-77
2023/09/14 11:43:28;;;;;;;7.83;1.70;;;18.60;61.70;;;;;;4998908;28;20145;-78
2023/09/14 11:46:00;;;;;;;6.80;1.60;;;18.70;62.00;;;;;;5001163;28;20306;-78
2023/09/14 11:48:33;;;;;;;5.55;1.48;;;18.80;62.10;;;;;;4999481;28;20047;-78
2023/09/14 11:51:03;;;;;;;5.07;1.77;;;18.80;61.70;;;;;;4989637;28;20134;-77
2023/09/14 11:53:35;;;;;;;5.40;1.33;;;18.90;60.70;;;;;;4991764;28;20054;-78
2023/09/14 11:56:02;;;;;;;6.37;1.87;;;18.90;59.90;;;;;;4957623;28;20050;-77
2023/09/14 11:58:34;;;;;;;6.22;1.45;;;19.00;59.60;;;;;;4990254;28;20270;-78
2023/09/14 12:01:01;;;;;;;7.10;1.55;;;19.00;59.30;;;;;;4989700;28;20063;-77
2023/09/14 12:03:28;;;;;;;6.05;1.70;;;19.00;59.70;;;;;;4982809;28;20580;-79
2023/09/14 12:05:56;;;;;;;8.05;1.70;;;19.10;59.00;;;;;;4978003;28;20051;-80
2023/09/14 12:08:25;;;;;;;6.20;1.60;;;19.10;58.70;;;;;;4970322;28;20055;-79
2023/09/14 12:10:56;;;;;;;7.28;1.70;;;19.10;58.00;;;;;;4983219;28;20295;-79
2023/09/14 12:13:24;;;;;;;4.70;1.60;;;19.30;58.60;;;;;;4980174;28;20051;-79
2023/09/14 12:15:59;;;;;;;5.55;1.73;;;19.30;59.20;;;;;;4965182;28;20202;-80
2023/09/14 12:18:39;;;;;;;7.82;1.92;;;19.50;59.90;;;;;;5020221;28;20496;-79
2023/09/14 12:21:08;;;;;;;6.23;2.03;;;19.50;58.90;;;;;;5006366;28;20057;-80
2023/09/14 12:23:37;;;;;;;5.90;1.67;;;19.60;58.70;;;;;;4991125;28;20262;-80
2023/09/14 12:26:07;;;;;;;6.53;1.95;;;19.70;58.50;;;;;;5022280;28;20062;-80
2023/09/14 12:28:34;;;;;;;5.70;1.73;;;19.80;57.60;;;;;;4985990;28;20122;-79
2023/09/14 12:31:01;;;;;;;7.32;2.10;;;19.90;57.80;;;;;;4973051;28;20057;-81
2023/09/14 12:33:28;;;;;;;5.80;1.97;;;20.00;57.20;;;;;;5022827;28;20104;-80
2023/09/14 12:35:55;;;;;;;5.43;1.70;;;20.00;56.90;;;;;;4981597;28;20263;-81
2023/09/14 12:38:23;;;;;;;19.15;2.10;;;20.00;55.60;;;;;;4968481;28;21118;-80
2023/09/14 12:40:51;;;;;;;5.25;1.90;;;20.10;55.50;;;;;;4989781;28;20054;-80
2023/09/14 12:43:20;;;;;;;5.13;1.73;;;20.10;55.90;;;;;;4981269;28;20070;-80
2023/09/14 12:45:47;;;;;;;7.67;2.13;;;20.10;56.10;;;;;;5012697;28;20194;-80
2023/09/14 12:48:13;;;;;;;8.48;2.00;;;20.10;56.60;;;;;;4987708;28;20255;-80
2023/09/14 12:50:41;;;;;;;6.70;1.67;;;20.10;56.90;;;;;;4990254;28;20053;-80
2023/09/14 12:53:09;;;;;;;6.18;1.80;;;20.20;57.10;;;;;;4984943;28;20055;-80